createdAt,value
2023-02-04T00:01:59.495Z,25.63
2023-02-04T00:04:26.061Z,25.40
2023-02-04T00:06:52.547Z,26.23
2023-02-04T00:09:19.086Z,20.97
2023-02-04T00:11:45.577Z,26.83
2023-02-04T00:14:12.719Z,26.87
2023-02-04T00:16:39.253Z,24.50
2023-02-04T00:19:05.873Z,24.57
2023-02-04T00:21:32.306Z,26.37
2023-02-04T00:23:58.793Z,30.67
2023-02-04T00:26:25.397Z,26.40
2023-02-04T00:28:51.920Z,29.50
2023-02-04T00:31:18.534Z,31.13
2023-02-04T00:33:45.414Z,21.90
2023-02-04T00:36:11.997Z,22.80
2023-02-04T00:38:38.497Z,29.80
2023-02-04T00:41:06.516Z,26.03
2023-02-04T00:43:32.969Z,25.60
2023-02-04T00:45:59.511Z,23.57
2023-02-04T00:48:26.864Z,28.73
2023-02-04T00:50:54.076Z,30.10
2023-02-04T00:53:20.577Z,31.97
2023-02-04T00:55:47.172Z,29.77
2023-02-04T00:58:13.662Z,26.17
2023-02-04T01:00:40.422Z,28.73
2023-02-04T01:03:07.189Z,27.93
2023-02-04T01:05:33.767Z,27.97
2023-02-04T01:08:00.217Z,27.67
2023-02-04T01:10:26.955Z,27.30
2023-02-04T01:12:53.645Z,24.30
2023-02-04T01:15:20.114Z,26.47
2023-02-04T01:17:46.754Z,26.87
2023-02-04T01:20:13.268Z,24.60
2023-02-04T01:22:39.748Z,26.53
2023-02-04T01:25:06.828Z,27.00
2023-02-04T01:27:33.443Z,25.03
2023-02-04T01:29:59.954Z,25.27
2023-02-04T01:32:26.473Z,25.23
2023-02-04T01:34:53.113Z,23.47
2023-02-04T01:37:19.579Z,28.70
2023-02-04T01:39:46.110Z,26.77
2023-02-04T01:42:13.073Z,26.47
2023-02-04T01:44:40.011Z,24.97
2023-02-04T01:47:06.733Z,26.00
2023-02-04T01:49:33.429Z,22.10
2023-02-04T01:51:59.921Z,20.17
2023-02-04T01:54:26.991Z,20.70
2023-02-04T01:56:55.224Z,21.17
2023-02-04T01:59:22.119Z,19.50
2023-02-04T02:01:51.036Z,19.87
2023-02-04T02:04:20.541Z,18.60
2023-02-04T02:06:50.019Z,21.90
2023-02-04T02:09:16.548Z,20.93
2023-02-04T02:11:43.374Z,19.23
2023-02-04T02:14:09.999Z,17.70
2023-02-04T02:16:36.612Z,17.87
2023-02-04T02:19:04.288Z,23.00
2023-02-04T02:21:37.166Z,22.93
2023-02-04T02:24:26.700Z,17.93
2023-02-04T02:26:54.091Z,17.30
2023-02-04T02:29:20.757Z,15.90
2023-02-04T02:31:47.368Z,19.20
2023-02-04T02:34:13.956Z,16.60
2023-02-04T02:36:40.653Z,17.97
2023-02-04T02:39:07.231Z,14.70
2023-02-04T02:41:35.220Z,15.17
2023-02-04T02:44:02.512Z,13.50
2023-02-04T02:46:29.064Z,14.70
2023-02-04T02:48:55.694Z,13.23
2023-02-04T02:51:22.204Z,13.87
2023-02-04T02:53:49.459Z,14.60
2023-02-04T02:56:17.888Z,13.23
2023-02-04T02:58:44.424Z,13.97
2023-02-04T03:01:11.702Z,12.87
2023-02-04T03:03:41.217Z,13.77
2023-02-04T03:06:13.986Z,14.80
2023-02-04T03:08:41.121Z,14.10
2023-02-04T03:11:07.598Z,13.60
2023-02-04T03:13:34.338Z,10.80
2023-02-04T03:16:01.022Z,13.07
2023-02-04T03:18:28.013Z,14.67
2023-02-04T03:20:54.691Z,13.97
2023-02-04T03:23:21.270Z,13.37
2023-02-04T03:25:47.965Z,14.90
2023-02-04T03:28:14.679Z,12.53
2023-02-04T03:30:41.218Z,16.10
2023-02-04T03:33:07.790Z,15.07
2023-02-04T03:35:34.258Z,11.97
2023-02-04T03:38:00.745Z,11.47
2023-02-04T03:40:27.204Z,17.90
2023-02-04T03:42:53.879Z,13.40
2023-02-04T03:45:20.429Z,13.17
2023-02-04T03:47:46.908Z,13.93
2023-02-04T03:50:14.341Z,11.83
2023-02-04T03:52:40.835Z,10.90
2023-02-04T03:55:07.458Z,10.70
2023-02-04T03:57:34.407Z,11.27
2023-02-04T04:00:00.886Z,14.37
2023-02-04T04:02:27.403Z,10.33
2023-02-04T04:04:54.004Z,12.63
2023-02-04T04:07:20.480Z,11.70
2023-02-04T04:09:46.939Z,13.03
2023-02-04T04:12:13.501Z,13.47
2023-02-04T04:14:39.964Z,17.30
2023-02-04T04:17:07.091Z,16.67
2023-02-04T04:19:33.696Z,11.87
2023-02-04T04:22:00.189Z,14.57
2023-02-04T04:24:26.869Z,15.27
2023-02-04T04:26:53.329Z,12.63
2023-02-04T04:29:19.782Z,13.23
2023-02-04T04:31:46.227Z,13.23
2023-02-04T04:34:12.927Z,13.27
2023-02-04T04:36:39.357Z,14.87
2023-02-04T04:39:05.790Z,12.20
2023-02-04T04:41:32.357Z,11.83
2023-02-04T04:43:58.818Z,12.93
2023-02-04T04:46:25.285Z,13.13
2023-02-04T04:48:51.909Z,12.57
2023-02-04T04:51:18.368Z,11.47
2023-02-04T04:53:44.840Z,17.43
2023-02-04T04:56:11.705Z,16.47
2023-02-04T04:58:38.252Z,12.40
2023-02-04T05:01:04.858Z,15.67
2023-02-04T05:03:31.375Z,13.83
2023-02-04T05:05:57.900Z,16.53
2023-02-04T05:08:24.369Z,16.57
2023-02-04T05:10:50.914Z,12.57
2023-02-04T05:13:17.343Z,15.77
2023-02-04T05:15:43.848Z,14.90
2023-02-04T05:18:10.465Z,12.50
2023-02-04T05:20:37.177Z,14.33
2023-02-04T05:23:05.604Z,13.87
2023-02-04T05:25:32.551Z,13.03
2023-02-04T05:27:59.063Z,14.70
2023-02-04T05:30:25.655Z,10.23
2023-02-04T05:32:52.149Z,11.37
2023-02-04T05:35:18.684Z,12.60
2023-02-04T05:37:45.231Z,10.17
2023-02-04T05:40:12.800Z,10.70
2023-02-04T05:42:39.484Z,15.70
2023-02-04T05:45:06.249Z,11.20
2023-02-04T05:47:32.735Z,13.73
2023-02-04T05:49:59.214Z,15.03
2023-02-04T05:52:25.650Z,9.70
2023-02-04T05:54:52.139Z,15.10
2023-02-04T05:57:18.671Z,13.00
2023-02-04T05:59:45.555Z,10.97
2023-02-04T06:02:12.035Z,10.03
2023-02-04T06:04:38.547Z,11.90
2023-02-04T06:07:05.102Z,12.57
2023-02-04T06:09:31.615Z,10.50
2023-02-04T06:11:58.087Z,11.27
2023-02-04T06:14:24.660Z,10.30
2023-02-04T06:16:51.181Z,11.93
2023-02-04T06:19:17.696Z,14.53
2023-02-04T06:21:44.151Z,12.07
2023-02-04T06:24:10.760Z,15.67
2023-02-04T06:26:37.224Z,13.17
2023-02-04T06:29:03.974Z,15.27
2023-02-04T06:31:30.740Z,12.87
2023-02-04T06:33:57.272Z,9.97
2023-02-04T06:36:23.828Z,10.73
2023-02-04T06:38:50.344Z,11.30
2023-02-04T06:41:16.888Z,16.03
2023-02-04T06:43:43.513Z,20.13
2023-02-04T06:46:10.009Z,13.00
2023-02-04T06:48:36.530Z,11.07
2023-02-04T06:51:03.071Z,12.40
2023-02-04T06:53:29.679Z,11.07
2023-02-04T06:55:56.228Z,10.90
2023-02-04T06:58:22.719Z,12.03
2023-02-04T07:00:49.237Z,14.63
2023-02-04T07:03:15.757Z,11.40
2023-02-04T07:05:42.199Z,14.17
2023-02-04T07:08:08.708Z,13.23
2023-02-04T07:10:35.458Z,10.83
2023-02-04T07:13:02.173Z,9.87
2023-02-04T07:15:28.779Z,10.90
2023-02-04T07:17:55.432Z,8.40
2023-02-04T07:20:21.907Z,9.13
2023-02-04T07:22:48.367Z,9.07
2023-02-04T07:25:16.047Z,12.87
2023-02-04T07:27:42.605Z,9.80
2023-02-04T07:30:10.648Z,7.67
2023-02-04T07:32:37.260Z,9.10
2023-02-04T07:35:04.068Z,8.20
2023-02-04T07:37:30.656Z,7.63
2023-02-04T07:39:57.174Z,7.20
2023-02-04T07:42:23.877Z,9.23
2023-02-04T07:44:50.454Z,10.40
2023-02-04T07:47:17.060Z,7.87
2023-02-04T07:49:43.518Z,9.07
2023-02-04T07:52:10.221Z,6.87
2023-02-04T07:54:36.821Z,7.53
2023-02-04T07:57:03.365Z,7.07
2023-02-04T07:59:29.943Z,8.43
2023-02-04T08:01:56.640Z,6.57
2023-02-04T08:04:23.225Z,6.87
2023-02-04T08:06:49.816Z,5.27
2023-02-04T08:09:16.332Z,5.60
2023-02-04T08:11:42.937Z,8.53
2023-02-04T08:14:09.483Z,6.83
2023-02-04T08:16:36.111Z,7.27
2023-02-04T08:19:02.729Z,8.70
2023-02-04T08:21:29.263Z,7.20
2023-02-04T08:23:55.854Z,6.40
2023-02-04T08:26:22.570Z,5.70
2023-02-04T08:28:49.196Z,5.83
2023-02-04T08:31:15.835Z,6.30
2023-02-04T08:33:42.487Z,6.03
2023-02-04T08:36:09.087Z,8.20
2023-02-04T08:38:35.636Z,5.33
2023-02-04T08:41:02.496Z,4.40
2023-02-04T08:43:29.213Z,6.03
2023-02-04T08:45:55.718Z,7.73
2023-02-04T08:48:22.244Z,4.37
2023-02-04T08:50:51.742Z,3.57
2023-02-04T08:53:18.333Z,5.33
2023-02-04T08:55:45.010Z,3.33
2023-02-04T08:58:11.987Z,4.43
2023-02-04T09:00:38.533Z,2.30
2023-02-04T09:03:05.176Z,2.80
2023-02-04T09:05:31.931Z,2.80
2023-02-04T09:07:58.479Z,2.63
2023-02-04T09:10:25.074Z,4.40
2023-02-04T09:12:56.008Z,3.27
2023-02-04T09:15:24.506Z,3.90
2023-02-04T09:17:54.110Z,4.40
2023-02-04T09:20:21.594Z,4.63
2023-02-04T09:22:50.276Z,3.10
2023-02-04T09:25:17.100Z,2.60
2023-02-04T09:27:43.844Z,3.70
2023-02-04T09:30:10.955Z,2.17
2023-02-04T09:32:37.469Z,2.77
2023-02-04T09:35:04.386Z,2.63
2023-02-04T09:37:30.975Z,5.60
2023-02-04T09:39:57.695Z,3.97
2023-02-04T09:42:25.410Z,2.60
2023-02-04T09:44:52.227Z,3.67
2023-02-04T09:47:22.621Z,3.80
2023-02-04T09:49:49.171Z,3.13
2023-02-04T09:52:17.021Z,4.50
2023-02-04T09:54:43.709Z,4.67
2023-02-04T09:57:19.059Z,3.67
2023-02-04T09:59:46.218Z,3.17
2023-02-04T10:02:24.476Z,4.33
2023-02-04T10:04:57.723Z,3.43
2023-02-04T10:07:26.444Z,3.83
2023-02-04T10:09:54.398Z,5.00
2023-02-04T10:12:21.440Z,6.10
2023-02-04T10:14:47.979Z,7.20
2023-02-04T10:17:19.688Z,8.03
2023-02-04T10:19:46.246Z,6.53
2023-02-04T10:22:17.831Z,7.63
2023-02-04T10:24:44.460Z,5.03
2023-02-04T10:27:15.452Z,7.13
2023-02-04T10:29:43.487Z,5.77
2023-02-04T10:32:34.436Z,5.70
2023-02-04T10:35:02.486Z,6.07
2023-02-04T10:37:30.310Z,4.50
2023-02-04T10:39:56.879Z,8.80
2023-02-04T10:42:28.390Z,5.60
2023-02-04T10:44:55.536Z,6.07
2023-02-04T10:47:24.985Z,5.43
2023-02-04T10:50:02.870Z,5.13
2023-02-04T10:52:37.538Z,7.63
2023-02-04T10:55:05.686Z,7.33
2023-02-04T10:57:39.657Z,9.67
2023-02-04T11:00:21.493Z,7.53
2023-02-04T11:02:58.275Z,10.10
2023-02-04T11:05:30.408Z,8.60
2023-02-04T11:07:57.014Z,7.23
2023-02-04T11:10:27.929Z,9.77
2023-02-04T11:12:54.491Z,8.03
2023-02-04T11:15:41.048Z,9.30
2023-02-04T11:18:27.770Z,7.73
2023-02-04T11:20:56.912Z,7.80
2023-02-04T11:23:26.959Z,10.27
2023-02-04T11:26:08.299Z,8.03
2023-02-04T11:28:50.471Z,10.80
2023-02-04T11:31:19.684Z,6.33
2023-02-04T11:33:46.932Z,13.30
2023-02-04T11:36:15.169Z,5.87
2023-02-04T11:38:49.888Z,6.93
2023-02-04T11:41:33.289Z,7.87
2023-02-04T11:43:59.876Z,6.93
2023-02-04T11:46:27.073Z,9.27
2023-02-04T11:48:54.860Z,10.37
2023-02-04T11:51:26.432Z,6.57
2023-02-04T11:53:53.133Z,8.27
2023-02-04T11:56:20.923Z,8.00
2023-02-04T11:58:51.024Z,8.23
2023-02-04T12:01:22.124Z,9.17
2023-02-04T12:03:50.624Z,10.33
2023-02-04T12:06:25.388Z,9.60
2023-02-04T12:08:52.181Z,10.47
2023-02-04T12:11:36.069Z,9.27
2023-02-04T12:14:10.395Z,11.47
2023-02-04T12:16:46.794Z,8.83
2023-02-04T12:19:13.843Z,12.20
2023-02-04T12:21:40.843Z,11.23
2023-02-04T12:24:07.502Z,10.57
2023-02-04T12:26:34.038Z,8.93
2023-02-04T12:29:02.967Z,10.83
2023-02-04T12:31:30.380Z,12.00
2023-02-04T12:33:57.289Z,9.83
2023-02-04T12:36:24.548Z,12.50
2023-02-04T12:38:51.243Z,10.70
2023-02-04T12:41:19.869Z,12.77
2023-02-04T12:43:46.793Z,12.70
2023-02-04T12:46:13.268Z,9.80
2023-02-04T12:48:41.144Z,11.00
2023-02-04T12:51:08.176Z,8.70
2023-02-04T12:53:34.866Z,11.13
2023-02-04T12:56:01.648Z,12.77
2023-02-04T12:58:28.179Z,11.63
2023-02-04T13:00:54.914Z,9.37
2023-02-04T13:03:22.772Z,13.93
2023-02-04T13:05:49.257Z,15.67
2023-02-04T13:08:15.994Z,9.77
2023-02-04T13:10:42.950Z,10.80
2023-02-04T13:13:09.643Z,10.17
2023-02-04T13:15:36.183Z,11.90
2023-02-04T13:18:02.845Z,8.23
2023-02-04T13:20:29.295Z,10.17
2023-02-04T13:22:55.838Z,10.10
2023-02-04T13:25:22.517Z,10.23
2023-02-04T13:27:49.161Z,7.70
2023-02-04T13:30:16.059Z,6.77
2023-02-04T13:32:43.529Z,6.43
2023-02-04T13:35:10.167Z,5.30
2023-02-04T13:37:38.120Z,8.03
2023-02-04T13:40:06.186Z,6.97
2023-02-04T13:42:32.657Z,8.27
2023-02-04T13:44:59.250Z,5.73
2023-02-04T13:47:25.840Z,7.30
2023-02-04T13:49:52.342Z,7.67
2023-02-04T13:52:19.249Z,4.77
2023-02-04T13:54:46.103Z,5.83
2023-02-04T13:57:13.246Z,5.70
2023-02-04T13:59:39.897Z,5.40
2023-02-04T14:02:06.616Z,4.27
2023-02-04T14:04:33.155Z,5.13
2023-02-04T14:06:59.792Z,6.23
2023-02-04T14:09:26.444Z,4.20
2023-02-04T14:11:52.953Z,4.03
2023-02-04T14:14:19.460Z,10.13
2023-02-04T14:16:46.146Z,4.27
2023-02-04T14:19:14.141Z,7.50
2023-02-04T14:21:40.648Z,5.93
2023-02-04T14:24:07.343Z,5.33
2023-02-04T14:26:33.918Z,4.87
2023-02-04T14:29:00.444Z,7.40
2023-02-04T14:31:27.150Z,6.93
2023-02-04T14:33:53.846Z,6.67
2023-02-04T14:36:22.150Z,6.73
2023-02-04T14:38:48.908Z,4.53
2023-02-04T14:41:17.349Z,6.33
2023-02-04T14:43:44.076Z,6.13
2023-02-04T14:46:10.854Z,6.73
2023-02-04T14:48:37.378Z,9.00
2023-02-04T14:51:04.704Z,6.80
2023-02-04T14:53:31.396Z,8.73
2023-02-04T14:55:57.975Z,7.20
2023-02-04T14:58:26.933Z,8.83
2023-02-04T15:00:54.309Z,8.07
2023-02-04T15:03:20.814Z,6.83
2023-02-04T15:05:47.385Z,12.20
2023-02-04T15:08:13.888Z,8.17
2023-02-04T15:10:41.322Z,13.43
2023-02-04T15:13:08.136Z,11.00
2023-02-04T15:15:35.038Z,8.30
2023-02-04T15:18:01.684Z,9.13
2023-02-04T15:20:28.471Z,8.47
2023-02-04T15:22:56.429Z,7.40
2023-02-04T15:25:23.857Z,10.23
2023-02-04T15:27:50.671Z,9.90
2023-02-04T15:30:17.605Z,8.03
2023-02-04T15:32:46.046Z,9.27
2023-02-04T15:35:13.605Z,8.97
2023-02-04T15:37:40.136Z,10.03
2023-02-04T15:40:08.591Z,9.77
2023-02-04T15:42:35.695Z,7.30
2023-02-04T15:45:02.211Z,10.73
2023-02-04T15:47:28.666Z,8.07
2023-02-04T15:49:55.103Z,7.03
2023-02-04T15:52:24.925Z,7.53
2023-02-04T15:54:51.752Z,9.47
2023-02-04T15:57:18.265Z,9.07
2023-02-04T15:59:44.755Z,7.57
2023-02-04T16:02:11.774Z,16.53
2023-02-04T16:04:38.469Z,11.13
2023-02-04T16:07:08.158Z,10.73
2023-02-04T16:09:35.708Z,10.50
2023-02-04T16:12:02.274Z,9.67
2023-02-04T16:14:28.918Z,9.97
2023-02-04T16:16:55.351Z,8.70
2023-02-04T16:19:21.821Z,13.50
2023-02-04T16:21:48.257Z,9.23
2023-02-04T16:24:18.305Z,12.10
2023-02-04T16:26:45.435Z,13.23
2023-02-04T16:29:11.932Z,12.63
2023-02-04T16:31:38.618Z,11.73
2023-02-04T16:34:05.211Z,14.10
2023-02-04T16:36:31.821Z,12.50
2023-02-04T16:38:59.420Z,14.03
2023-02-04T16:41:26.180Z,12.17
2023-02-04T16:43:52.818Z,16.60
2023-02-04T16:46:19.350Z,11.80
2023-02-04T16:48:45.856Z,17.07
2023-02-04T16:51:12.967Z,10.43
2023-02-04T16:53:39.701Z,11.17
2023-02-04T16:56:06.757Z,10.97
2023-02-04T16:58:33.244Z,14.37
2023-02-04T17:00:59.896Z,12.60
2023-02-04T17:03:28.062Z,15.00
2023-02-04T17:05:54.697Z,13.07
2023-02-04T17:08:21.158Z,11.03
2023-02-04T17:11:06.747Z,14.87
2023-02-04T17:13:34.227Z,12.37
2023-02-04T17:16:01.297Z,13.83
2023-02-04T17:18:31.956Z,15.57
2023-02-04T17:20:59.455Z,15.43
2023-02-04T17:23:26.943Z,14.97
2023-02-04T17:25:53.473Z,17.10
2023-02-04T17:28:20.028Z,19.17
2023-02-04T17:30:46.626Z,13.03
2023-02-04T17:33:13.171Z,16.33
2023-02-04T17:35:39.809Z,15.43
2023-02-04T17:38:06.356Z,14.50
2023-02-04T17:40:33.000Z,11.80
2023-02-04T17:42:59.586Z,14.50
2023-02-04T17:45:26.229Z,14.33
2023-02-04T17:47:52.885Z,15.60
2023-02-04T17:50:19.358Z,14.07
2023-02-04T17:52:45.848Z,16.27
2023-02-04T17:55:30.633Z,13.03
2023-02-04T17:58:02.376Z,16.63
2023-02-04T18:00:30.712Z,13.80
2023-02-04T18:02:57.622Z,15.33
2023-02-04T18:05:26.849Z,12.87
2023-02-04T18:08:01.307Z,15.67
2023-02-04T18:10:34.207Z,15.30
2023-02-04T18:13:09.638Z,17.63
2023-02-04T18:15:36.803Z,21.10
2023-02-04T18:18:12.909Z,16.70
2023-02-04T18:20:39.589Z,18.47
2023-02-04T18:23:11.837Z,18.77
2023-02-04T18:25:38.306Z,20.80
2023-02-04T18:28:13.478Z,23.20
2023-02-04T18:30:40.055Z,20.83
2023-02-04T18:33:15.637Z,20.97
2023-02-04T18:35:45.547Z,18.30
2023-02-04T18:38:28.414Z,21.13
2023-02-04T18:41:20.916Z,17.27
2023-02-04T18:44:02.094Z,20.23
2023-02-04T18:46:33.150Z,18.17
2023-02-04T18:49:27.395Z,21.07
2023-02-04T18:51:54.959Z,24.47
2023-02-04T18:54:29.022Z,22.00
2023-02-04T18:57:21.741Z,22.87
2023-02-04T18:59:48.495Z,21.43
2023-02-04T19:02:36.224Z,22.73
2023-02-04T19:05:30.000Z,25.27
2023-02-04T19:08:05.910Z,20.90
2023-02-04T19:10:34.531Z,23.37
2023-02-04T19:13:37.125Z,21.20
2023-02-04T19:16:21.599Z,23.33
2023-02-04T19:18:48.573Z,24.17
2023-02-04T19:21:22.746Z,22.67
2023-02-04T19:23:50.238Z,27.20
2023-02-04T19:26:29.320Z,22.60
2023-02-04T19:28:56.580Z,23.67
2023-02-04T19:31:23.142Z,22.30
2023-02-04T19:33:55.329Z,21.70
2023-02-04T19:36:37.711Z,23.60
2023-02-04T19:39:43.363Z,28.47
2023-02-04T19:42:36.370Z,20.60
2023-02-04T19:45:21.958Z,24.13
2023-02-04T19:47:50.079Z,25.07
2023-02-04T19:50:23.630Z,23.50
2023-02-04T19:53:09.642Z,24.43
2023-02-04T19:55:42.625Z,24.10
2023-02-04T19:58:23.337Z,26.13
2023-02-04T20:01:08.294Z,24.67
2023-02-04T20:03:41.877Z,24.03
2023-02-04T20:06:29.913Z,23.43
2023-02-04T20:09:18.221Z,21.37
2023-02-04T20:11:55.589Z,21.57
2023-02-04T20:14:25.242Z,25.27
2023-02-04T20:17:00.241Z,26.20
2023-02-04T20:19:35.587Z,25.83
2023-02-04T20:22:17.228Z,25.40
2023-02-04T20:24:47.501Z,21.77
2023-02-04T20:27:20.894Z,17.20
2023-02-04T20:29:48.044Z,22.10
2023-02-04T20:32:17.916Z,18.60
2023-02-04T20:34:44.473Z,20.63
2023-02-04T20:37:23.682Z,20.03
2023-02-04T20:39:50.111Z,21.60
2023-02-04T20:42:28.320Z,20.90
2023-02-04T20:44:58.146Z,22.63
2023-02-04T20:47:25.951Z,21.70
2023-02-04T20:49:56.151Z,19.33
2023-02-04T20:52:48.608Z,21.87
2023-02-04T20:55:28.533Z,22.10
2023-02-04T20:58:16.007Z,21.37
2023-02-04T21:00:43.688Z,21.40
2023-02-04T21:03:13.085Z,23.00
2023-02-04T21:05:40.150Z,21.43
2023-02-04T21:08:44.750Z,20.97
2023-02-04T21:11:11.787Z,19.57
2023-02-04T21:13:38.809Z,20.03
2023-02-04T21:16:06.664Z,17.87
2023-02-04T21:18:36.089Z,15.77
2023-02-04T21:21:04.388Z,20.13
2023-02-04T21:23:30.910Z,23.63
2023-02-04T21:25:57.417Z,22.00
2023-02-04T21:28:24.005Z,21.63
2023-02-04T21:30:50.654Z,25.93
2023-02-04T21:33:17.365Z,24.07
2023-02-04T21:35:43.931Z,22.60
2023-02-04T21:38:10.521Z,23.37
2023-02-04T21:40:38.210Z,24.80
2023-02-04T21:43:07.478Z,19.77
2023-02-04T21:45:35.942Z,19.77
2023-02-04T21:48:03.111Z,31.87
2023-02-04T21:50:30.309Z,26.03
2023-02-04T21:52:57.107Z,24.07
2023-02-04T21:55:23.659Z,23.80
2023-02-04T21:57:50.643Z,25.43
2023-02-04T22:00:19.771Z,22.83
2023-02-04T22:02:46.287Z,23.90
2023-02-04T22:05:13.266Z,28.33
2023-02-04T22:07:40.521Z,23.80
2023-02-04T22:10:09.739Z,25.67
2023-02-04T22:12:36.292Z,25.73
2023-02-04T22:15:04.489Z,25.50
2023-02-04T22:17:31.172Z,27.20
2023-02-04T22:19:57.706Z,24.87
2023-02-04T22:22:24.220Z,25.23
2023-02-04T22:24:50.665Z,26.90
2023-02-04T22:27:17.334Z,30.17
2023-02-04T22:29:43.905Z,24.00
2023-02-04T22:32:10.418Z,24.07
2023-02-04T22:34:36.969Z,29.67
2023-02-04T22:37:03.540Z,26.93
2023-02-04T22:39:30.050Z,25.90
2023-02-04T22:41:56.702Z,24.20
2023-02-04T22:44:23.400Z,23.17
2023-02-04T22:46:49.926Z,26.23
2023-02-04T22:49:16.397Z,34.27
2023-02-04T22:51:42.952Z,25.07
2023-02-04T22:54:09.449Z,35.13
2023-02-04T22:56:35.964Z,22.37
2023-02-04T22:59:02.696Z,25.77
2023-02-04T23:01:29.218Z,26.30
2023-02-04T23:03:55.728Z,27.27
2023-02-04T23:06:22.656Z,27.87
2023-02-04T23:08:49.651Z,29.87
2023-02-04T23:11:18.462Z,27.63
2023-02-04T23:13:45.734Z,22.70
2023-02-04T23:16:15.010Z,31.13
2023-02-04T23:18:41.513Z,29.60
2023-02-04T23:21:10.105Z,23.67
2023-02-04T23:23:36.975Z,25.60
2023-02-04T23:26:04.218Z,25.50
2023-02-04T23:28:31.183Z,32.73
2023-02-04T23:30:58.201Z,23.37
2023-02-04T23:33:24.749Z,23.43
2023-02-04T23:35:51.458Z,28.77
2023-02-04T23:38:17.999Z,26.83
2023-02-04T23:40:44.681Z,27.13
2023-02-04T23:43:11.695Z,26.33
2023-02-04T23:45:38.477Z,23.13
2023-02-04T23:48:05.746Z,27.47
2023-02-04T23:50:32.660Z,22.77
2023-02-04T23:52:59.132Z,25.50
2023-02-04T23:55:25.633Z,26.97
2023-02-04T23:57:52.199Z,22.73
